Time;durP1;ratioP1;P1;durP2;ratioP2;P2;SDS_P1;SDS_P2;PMS_P1;PMS_P2;Temp;Humidity;BMP_temperature;BMP_pressure;BME280_temperature;BME280_humidity;BME280_pressure;Samples;Min_cycle;Max_cycle;Signal;HPM_P1;HPM_P2
2023/05/25 00:02:14;;;;;;;16.50;10.33;;;;;;;10.20;87.73;101743.94;5027709;28;20219;-67
2023/05/25 00:04:40;;;;;;;16.53;10.67;;;;;;;10.13;86.96;101742.44;5027011;28;20260;-67
2023/05/25 00:07:07;;;;;;;15.87;10.37;;;;;;;10.06;87.02;101748.97;5026260;28;20581;-67
2023/05/25 00:09:35;;;;;;;16.57;11.43;;;;;;;10.01;88.14;101740.34;5022410;28;20210;-67
2023/05/25 00:12:02;;;;;;;14.90;10.83;;;;;;;9.98;87.84;101748.44;5024140;28;20268;-67
2023/05/25 00:14:29;;;;;;;17.67;10.63;;;;;;;9.95;88.33;101749.44;5021411;28;20212;-68
2023/05/25 00:16:56;;;;;;;15.97;10.73;;;;;;;9.95;89.08;101753.91;5022942;28;20921;-67
2023/05/25 00:19:23;;;;;;;19.17;10.83;;;;;;;9.94;89.18;101744.19;5029591;28;20692;-67
2023/05/25 00:21:50;;;;;;;16.53;11.10;;;;;;;9.92;89.33;101743.38;5023863;28;20655;-68
2023/05/25 00:24:17;;;;;;;14.97;10.87;;;;;;;9.90;89.62;101740.78;5020969;28;20297;-68
2023/05/25 00:26:46;;;;;;;16.47;10.17;;;;;;;9.87;88.88;101734.72;5022452;28;20211;-67
2023/05/25 00:29:13;;;;;;;14.17;9.57;;;;;;;9.81;88.38;101733.22;5026785;28;20575;-67
2023/05/25 00:31:40;;;;;;;15.33;10.73;;;;;;;9.75;88.18;101730.81;5031763;28;20210;-67
2023/05/25 00:34:06;;;;;;;16.60;10.67;;;;;;;9.69;88.32;101733.72;5026450;28;20225;-67
2023/05/25 00:36:33;;;;;;;16.83;11.13;;;;;;;9.64;88.46;101731.28;5023990;28;20560;-67
2023/05/25 00:38:59;;;;;;;16.73;10.50;;;;;;;9.56;87.51;101730.72;5030552;28;20688;-67
2023/05/25 00:41:27;;;;;;;14.80;10.03;;;;;;;9.49;87.73;101726.59;5023344;28;20238;-67
2023/05/25 00:43:55;;;;;;;18.60;9.97;;;;;;;9.40;87.97;101734.94;5026556;28;20230;-66
2023/05/25 00:46:22;;;;;;;13.17;10.37;;;;;;;9.34;87.88;101728.06;5027376;28;20214;-67
2023/05/25 00:48:53;;;;;;;14.40;9.67;;;;;;;9.29;88.28;101732.75;5027427;28;20551;-67
2023/05/25 00:51:19;;;;;;;14.67;10.30;;;;;;;9.24;88.77;101736.50;5028678;28;20209;-68
2023/05/25 00:53:46;;;;;;;14.90;11.30;;;;;;;9.20;88.64;101735.75;5027154;28;20229;-66
2023/05/25 00:56:19;;;;;;;16.23;10.43;;;;;;;9.16;88.57;101744.75;5027090;28;20754;-66
2023/05/25 00:58:49;;;;;;;19.37;10.77;;;;;;;9.11;88.95;101743.25;5022322;28;20198;-66
2023/05/25 01:01:19;;;;;;;18.77;10.63;;;;;;;9.05;89.20;101729.25;5030614;28;20210;-67
2023/05/25 01:03:52;;;;;;;17.87;11.70;;;;;;;9.04;89.23;101735.50;5023566;28;20233;-67
2023/05/25 01:06:21;;;;;;;15.33;11.10;;;;;;;9.00;89.28;101733.03;5029260;28;21502;-66
2023/05/25 01:08:51;;;;;;;18.33;10.50;;;;;;;8.96;89.50;101737.59;5022063;28;20207;-66
2023/05/25 01:11:21;;;;;;;15.30;9.93;;;;;;;8.95;89.22;101735.00;5032326;28;20210;-66
2023/05/25 01:13:49;;;;;;;13.50;9.97;;;;;;;8.88;89.78;101733.50;5020049;28;20234;-67
2023/05/25 01:16:17;;;;;;;15.33;10.37;;;;;;;8.80;89.75;101727.63;5025180;28;20213;-66
2023/05/25 01:18:44;;;;;;;13.67;9.37;;;;;;;8.74;89.31;101731.41;5027224;28;20202;-67
2023/05/25 01:21:18;;;;;;;13.43;8.87;;;;;;;8.68;89.60;101728.97;5027063;28;20202;-66
2023/05/25 01:23:50;;;;;;;14.57;10.00;;;;;;;8.66;89.78;101736.13;5028184;28;20241;-66
2023/05/25 01:26:19;;;;;;;12.90;9.07;;;;;;;8.63;90.29;101738.88;5030278;28;20202;-66
2023/05/25 01:28:51;;;;;;;12.93;8.37;;;;;;;8.62;90.23;101742.47;5030844;28;20210;-66
2023/05/25 01:31:20;;;;;;;15.10;9.40;;;;;;;8.59;90.12;101745.25;5030161;28;20217;-67
2023/05/25 01:33:48;;;;;;;12.07;9.53;;;;;;;8.55;90.31;101749.81;5032034;28;20287;-66
2023/05/25 01:36:16;;;;;;;17.67;10.97;;;;;;;8.50;89.64;101741.16;5028221;28;20226;-66
2023/05/25 01:38:42;;;;;;;19.13;10.83;;;;;;;8.43;89.93;101738.75;5031762;28;20606;-66
2023/05/25 01:41:09;;;;;;;19.20;11.40;;;;;;;8.35;89.66;101742.59;5028766;28;20202;-66
2023/05/25 01:43:35;;;;;;;16.47;11.13;;;;;;;8.32;90.40;101740.03;5031533;28;20225;-66
2023/05/25 01:46:11;;;;;;;16.03;11.20;;;;;;;8.30;90.56;101736.53;5026849;28;20247;-67
2023/05/25 01:48:42;;;;;;;12.83;10.17;;;;;;;8.30;91.41;101740.97;5027864;28;20206;-67
2023/05/25 01:51:19;;;;;;;12.33;8.77;;;;;;;8.26;90.63;101737.56;5032087;28;20209;-66
2023/05/25 01:53:51;;;;;;;13.07;8.40;;;;;;;8.24;91.01;101738.56;5028676;28;20225;-67
2023/05/25 01:56:19;;;;;;;15.23;8.60;;;;;;;8.21;90.79;101741.34;5034584;28;20207;-67
2023/05/25 01:58:48;;;;;;;11.83;7.33;;;;;;;8.16;90.38;101736.19;5030493;28;20255;-66
2023/05/25 02:01:16;;;;;;;8.53;6.33;;;;;;;8.13;90.56;101738.06;5027780;28;20222;-67
2023/05/25 02:03:43;;;;;;;11.03;6.87;;;;;;;8.08;90.68;101740.88;5030970;28;20226;-66
2023/05/25 02:06:10;;;;;;;10.17;7.17;;;;;;;8.04;90.57;101741.94;5032126;28;20206;-66
2023/05/25 02:08:38;;;;;;;13.50;7.77;;;;;;;8.01;90.82;101742.03;5027862;28;20218;-66
2023/05/25 02:11:04;;;;;;;6.93;6.20;;;;;;;7.97;90.88;101737.75;5030965;28;20202;-66
2023/05/25 02:13:31;;;;;;;8.73;6.30;;;;;;;7.93;91.15;101746.72;5028007;28;20225;-66
2023/05/25 02:15:57;;;;;;;11.07;7.97;;;;;;;7.89;91.31;101748.63;5028243;28;20203;-67
2023/05/25 02:18:25;;;;;;;11.93;8.83;;;;;;;7.86;91.41;101745.22;5029443;28;20206;-66
2023/05/25 02:20:52;;;;;;;10.40;8.53;;;;;;;7.85;91.81;101749.66;5030878;28;20205;-66
2023/05/25 02:23:18;;;;;;;12.43;7.90;;;;;;;7.84;91.76;101744.41;5026817;28;20272;-66
2023/05/25 02:25:46;;;;;;;8.47;6.70;;;;;;;7.81;91.89;101741.88;5032736;28;20301;-66
2023/05/25 02:28:13;;;;;;;9.80;7.53;;;;;;;7.78;91.54;101736.66;5033028;28;20197;-66
2023/05/25 02:30:39;;;;;;;11.60;8.23;;;;;;;7.74;92.10;101733.25;5030218;28;20681;-69
2023/05/25 02:33:05;;;;;;;10.50;7.77;;;;;;;7.73;92.37;101734.16;5029056;28;20245;-68
2023/05/25 02:35:32;;;;;;;13.30;8.37;;;;;;;7.71;92.32;101743.94;5032164;28;20212;-68
2023/05/25 02:37:58;;;;;;;15.57;9.40;;;;;;;7.71;92.55;101741.28;5029234;28;20206;-67
2023/05/25 02:40:25;;;;;;;10.43;8.53;;;;;;;7.69;92.89;101729.91;5030346;28;20209;-68
2023/05/25 02:42:52;;;;;;;11.60;7.83;;;;;;;7.66;92.30;101743.25;5028103;28;20218;-68
2023/05/25 02:45:19;;;;;;;13.77;9.97;;;;;;;7.58;92.18;101748.81;5029327;28;20207;-69
2023/05/25 02:47:45;;;;;;;14.17;9.63;;;;;;;7.54;91.90;101752.47;5029309;28;20222;-68
2023/05/25 02:50:12;;;;;;;16.10;9.27;;;;;;;7.52;92.78;101750.81;5033378;28;20221;-69
2023/05/25 02:52:38;;;;;;;15.37;9.73;;;;;;;7.51;93.07;101746.44;5026461;28;20234;-68
2023/05/25 02:55:08;;;;;;;15.40;9.33;;;;;;;7.50;93.46;101750.88;5031536;28;20198;-67
2023/05/25 02:57:35;;;;;;;13.80;9.53;;;;;;;7.49;94.45;101751.78;5028638;28;20193;-68
2023/05/25 03:00:05;;;;;;;14.73;9.23;;;;;;;7.51;94.16;101743.78;5032944;28;20206;-68
2023/05/25 03:02:31;;;;;;;17.53;9.60;;;;;;;7.51;94.47;101749.94;5030225;28;20221;-67
2023/05/25 03:04:58;;;;;;;18.47;10.33;;;;;;;7.49;94.81;101743.81;5031201;28;20239;-68
2023/05/25 03:07:25;;;;;;;16.60;9.47;;;;;;;7.48;95.38;101746.53;5033215;28;20212;-68
2023/05/25 03:09:52;;;;;;;17.13;9.27;;;;;;;7.48;94.97;101743.88;5029589;28;20202;-67
2023/05/25 03:12:18;;;;;;;15.80;9.87;;;;;;;7.48;95.33;101750.03;5034042;28;20225;-68
2023/05/25 03:14:45;;;;;;;15.77;9.57;;;;;;;7.50;96.59;101758.81;5030593;28;20202;-67
2023/05/25 03:17:12;;;;;;;22.20;12.07;;;;;;;7.53;97.57;101769.28;5033830;28;20209;-67
2023/05/25 03:19:39;;;;;;;25.70;13.63;;;;;;;7.57;97.42;101765.63;5028991;28;20209;-68
2023/05/25 03:22:06;;;;;;;21.27;12.97;;;;;;;7.63;98.57;101768.09;5031825;28;20233;-68
2023/05/25 03:24:32;;;;;;;27.23;14.93;;;;;;;7.70;98.88;101759.94;5028384;28;20206;-68
2023/05/25 03:26:59;;;;;;;26.27;14.60;;;;;;;7.76;99.63;101760.56;5026026;28;20206;-69
2023/05/25 03:29:26;;;;;;;24.30;14.13;;;;;;;7.81;100.00;101768.38;5026737;28;20295;-68
2023/05/25 03:31:53;;;;;;;23.87;13.73;;;;;;;7.87;100.00;101768.19;5025672;28;21111;-68
2023/05/25 03:34:20;;;;;;;28.33;14.87;;;;;;;7.93;100.00;101770.59;5029976;28;20242;-69
2023/05/25 03:36:47;;;;;;;21.93;13.13;;;;;;;7.97;100.00;101774.91;5028073;28;20213;-69
2023/05/25 03:39:14;;;;;;;25.97;13.13;;;;;;;8.01;100.00;101776.53;5024516;28;20681;-69
2023/05/25 03:41:41;;;;;;;25.90;14.27;;;;;;;8.06;100.00;101781.69;5024620;28;20233;-68
2023/05/25 03:44:09;;;;;;;28.13;14.20;;;;;;;8.10;100.00;101785.94;5028623;28;20198;-68
2023/05/25 03:46:36;;;;;;;26.03;14.30;;;;;;;8.16;100.00;101785.72;5023300;28;20205;-67
2023/05/25 03:49:03;;;;;;;28.00;14.67;;;;;;;8.22;100.00;101781.09;5029671;28;20210;-68
2023/05/25 03:51:31;;;;;;;26.27;14.60;;;;;;;8.27;100.00;101788.84;5031654;28;20209;-68
2023/05/25 03:53:57;;;;;;;25.77;13.87;;;;;;;8.32;100.00;101784.28;5022583;28;20648;-69
2023/05/25 03:56:23;;;;;;;18.60;12.10;;;;;;;8.37;100.00;101794.75;5031841;28;20584;-68
2023/05/25 03:58:51;;;;;;;18.63;12.33;;;;;;;8.40;100.00;101794.66;5027991;28;20213;-67
2023/05/25 04:01:18;;;;;;;25.93;13.37;;;;;;;8.38;100.00;101792.06;5033021;28;20245;-68
2023/05/25 04:03:45;;;;;;;28.10;14.57;;;;;;;8.40;100.00;101794.66;5029348;28;20225;-68
2023/05/25 04:06:11;;;;;;;24.17;13.53;;;;;;;8.42;100.00;101791.00;5030555;28;20247;-68
2023/05/25 04:08:39;;;;;;;24.50;13.30;;;;;;;8.46;100.00;101789.09;5021024;28;20217;-68
2023/05/25 04:11:06;;;;;;;23.90;13.33;;;;;;;8.49;100.00;101792.50;5030086;28;20220;-68
2023/05/25 04:13:35;;;;;;;25.43;14.30;;;;;;;8.52;100.00;101794.19;5023455;28;20242;-68
2023/05/25 04:16:01;;;;;;;33.50;15.10;;;;;;;8.56;100.00;101790.50;5030490;28;20210;-68
2023/05/25 04:18:28;;;;;;;28.47;14.97;;;;;;;8.59;100.00;101801.91;5029385;28;20679;-69
2023/05/25 04:20:56;;;;;;;23.83;14.83;;;;;;;8.62;100.00;101801.75;5030302;28;20210;-68
2023/05/25 04:23:22;;;;;;;26.93;13.70;;;;;;;8.64;100.00;101797.25;5026366;28;20218;-68
2023/05/25 04:25:50;;;;;;;26.60;14.57;;;;;;;8.68;100.00;101805.97;5026087;28;20673;-68
2023/05/25 04:28:17;;;;;;;37.50;14.57;;;;;;;8.70;100.00;101807.66;5028556;28;20302;-68
2023/05/25 04:30:44;;;;;;;23.10;13.67;;;;;;;8.75;100.00;101811.94;5021419;28;20203;-67
2023/05/25 04:33:11;;;;;;;28.43;14.53;;;;;;;8.78;100.00;101811.84;5026480;28;20584;-69
2023/05/25 04:35:39;;;;;;;25.13;13.80;;;;;;;8.80;100.00;101808.16;5025594;28;20230;-67
2023/05/25 04:38:06;;;;;;;25.70;14.30;;;;;;;8.84;100.00;101812.44;5028941;28;20652;-68
2023/05/25 04:40:34;;;;;;;23.07;12.93;;;;;;;8.86;100.00;101818.56;5028613;28;20711;-68
2023/05/25 04:43:02;;;;;;;25.33;15.17;;;;;;;8.90;100.00;101816.69;5032271;28;20598;-67
2023/05/25 04:45:30;;;;;;;25.90;13.10;;;;;;;8.93;100.00;101817.44;5025229;28;20665;-68
2023/05/25 04:48:00;;;;;;;27.43;14.07;;;;;;;8.94;100.00;101813.00;5025003;28;20221;-68
2023/05/25 04:50:26;;;;;;;22.87;13.57;;;;;;;8.96;100.00;101830.56;5027769;28;20252;-68
2023/05/25 04:52:53;;;;;;;25.50;14.40;;;;;;;8.98;100.00;101834.03;5027132;28;20307;-67
2023/05/25 04:55:19;;;;;;;27.73;14.20;;;;;;;9.01;100.00;101825.09;5019318;28;20222;-68
2023/05/25 04:57:46;;;;;;;32.03;13.80;;;;;;;9.04;100.00;101830.31;5030014;28;20284;-68
2023/05/25 05:00:15;;;;;;;27.10;13.80;;;;;;;9.08;100.00;101828.41;5024456;28;20210;-68
2023/05/25 05:02:42;;;;;;;28.33;15.00;;;;;;;9.10;100.00;101829.22;5026596;28;20218;-68
2023/05/25 05:05:09;;;;;;;27.40;13.87;;;;;;;9.13;100.00;101835.28;5029568;28;20662;-69
2023/05/25 05:07:36;;;;;;;27.57;13.57;;;;;;;9.17;100.00;101834.22;5030255;28;20209;-68
2023/05/25 05:10:03;;;;;;;25.23;14.07;;;;;;;9.20;100.00;101831.44;5026651;28;20583;-69
2023/05/25 05:12:30;;;;;;;27.57;14.63;;;;;;;9.23;100.00;101830.47;5027027;28;20273;-66
2023/05/25 05:14:56;;;;;;;23.13;13.13;;;;;;;9.24;100.00;101838.38;5025920;28;20888;-66
2023/05/25 05:17:25;;;;;;;26.37;13.77;;;;;;;9.26;100.00;101847.16;5029900;28;20210;-66
2023/05/25 05:19:51;;;;;;;25.80;14.43;;;;;;;9.28;100.00;101844.44;5031104;28;20206;-66
2023/05/25 05:22:17;;;;;;;25.57;13.07;;;;;;;9.31;100.00;101844.34;5030919;28;20232;-66
2023/05/25 05:24:44;;;;;;;22.37;13.20;;;;;;;9.35;100.00;101843.25;5020102;28;20213;-66
2023/05/25 05:27:13;;;;;;;24.60;13.40;;;;;;;9.39;100.00;101859.03;5033591;28;20202;-66
2023/05/25 05:29:40;;;;;;;24.07;13.63;;;;;;;9.41;100.00;101851.00;5027123;28;20233;-73
2023/05/25 05:32:07;;;;;;;21.33;13.13;;;;;;;9.47;100.00;101856.09;5024938;28;20661;-72
2023/05/25 05:34:35;;;;;;;21.30;13.43;;;;;;;9.51;100.00;101863.00;5028759;28;20226;-72
2023/05/25 05:37:01;;;;;;;28.37;13.23;;;;;;;9.55;100.00;101859.28;5031165;28;20205;-73
2023/05/25 05:39:28;;;;;;;21.07;13.13;;;;;;;9.59;100.00;101854.72;5032154;28;20206;-74
2023/05/25 05:41:54;;;;;;;19.70;12.63;;;;;;;9.63;100.00;101851.03;5027380;28;20760;-73
2023/05/25 05:44:21;;;;;;;26.10;13.83;;;;;;;9.67;100.00;101857.97;5026673;28;20211;-73
2023/05/25 05:46:48;;;;;;;23.60;12.50;;;;;;;9.72;100.00;101864.81;5026553;28;20213;-73
2023/05/25 05:49:14;;;;;;;26.00;13.80;;;;;;;9.77;100.00;101863.75;5029103;28;20708;-73
2023/05/25 05:51:42;;;;;;;26.57;12.97;;;;;;;9.81;100.00;101868.03;5025255;28;20206;-73
2023/05/25 05:54:09;;;;;;;26.63;12.40;;;;;;;9.85;100.00;101867.00;5031590;28;20227;-73
2023/05/25 05:56:35;;;;;;;18.90;11.20;;;;;;;9.90;100.00;101870.31;5029973;28;20206;-73
2023/05/25 05:59:02;;;;;;;21.90;12.67;;;;;;;9.92;100.00;101864.00;5028415;28;20604;-74
2023/05/25 06:01:28;;;;;;;21.10;11.93;;;;;;;9.96;100.00;101872.72;5029490;28;20618;-73
2023/05/25 06:03:55;;;;;;;24.53;12.37;;;;;;;9.98;100.00;101876.19;5025935;28;20233;-73
2023/05/25 06:06:21;;;;;;;19.47;11.27;;;;;;;10.02;100.00;101877.81;5025800;28;20206;-73
2023/05/25 06:08:49;;;;;;;19.03;11.10;;;;;;;10.04;100.00;101883.91;5018455;28;20201;-73
2023/05/25 06:11:16;;;;;;;21.97;12.07;;;;;;;10.05;100.00;101897.16;5026284;28;20674;-73
2023/05/25 06:13:42;;;;;;;16.43;10.37;;;;;;;10.06;100.00;101896.22;5022369;28;20231;-73
2023/05/25 06:16:09;;;;;;;17.00;10.00;;;;;;;10.07;99.79;101894.44;5026649;28;20202;-73
2023/05/25 06:18:35;;;;;;;15.43;9.07;;;;;;;10.07;99.02;101895.28;5028620;28;20205;-73
2023/05/25 06:21:03;;;;;;;17.07;10.10;;;;;;;10.08;98.23;101891.69;5023326;28;20290;-74
2023/05/25 06:23:30;;;;;;;14.70;9.60;;;;;;;10.14;97.93;101900.38;5029519;28;20222;-74
2023/05/25 06:25:57;;;;;;;15.57;10.13;;;;;;;10.15;96.99;101907.44;5020196;28;20674;-74
2023/05/25 06:28:24;;;;;;;12.83;9.90;;;;;;;10.17;96.83;101922.41;5024541;28;20207;-73
2023/05/25 06:30:51;;;;;;;17.00;10.33;;;;;;;10.16;96.36;101926.00;5025585;28;20254;-74
2023/05/25 06:33:17;;;;;;;15.07;9.93;;;;;;;10.18;95.96;101925.94;5026266;28;20227;-73
2023/05/25 06:35:43;;;;;;;13.93;9.87;;;;;;;10.20;95.49;101926.78;5025257;28;20226;-73
2023/05/25 06:38:11;;;;;;;16.73;10.43;;;;;;;10.21;95.27;101924.03;5021462;28;20206;-73
2023/05/25 06:40:37;;;;;;;18.60;10.63;;;;;;;10.22;94.98;101920.44;5029627;28;20207;-73
2023/05/25 06:43:05;;;;;;;16.97;11.40;;;;;;;10.25;94.92;101920.31;5018266;28;20710;-72
2023/05/25 06:45:32;;;;;;;22.33;11.90;;;;;;;10.28;94.30;101929.97;5022704;28;20293;-72
2023/05/25 06:47:58;;;;;;;20.63;11.73;;;;;;;10.30;93.82;101936.97;5021772;28;20213;-75
2023/05/25 06:50:25;;;;;;;19.13;11.80;;;;;;;10.31;93.61;101936.03;5024460;28;20214;-76
2023/05/25 06:52:51;;;;;;;20.30;12.73;;;;;;;10.32;93.85;101936.91;5024762;28;20477;-75
2023/05/25 06:55:18;;;;;;;18.50;11.17;;;;;;;10.35;93.41;101927.00;5012633;28;20724;-75
2023/05/25 06:57:44;;;;;;;21.73;12.67;;;;;;;10.36;93.05;101923.41;5010482;28;20213;-75
2023/05/25 07:00:15;;;;;;;18.43;11.67;;;;;;;10.39;92.66;101933.06;5021731;28;20211;-75
2023/05/25 07:02:41;;;;;;;21.57;12.20;;;;;;;10.39;92.37;101928.59;5026778;28;20308;-76
2023/05/25 07:05:08;;;;;;;20.17;12.47;;;;;;;10.44;92.39;101936.38;5028410;28;20195;-77
2023/05/25 07:07:35;;;;;;;19.07;12.70;;;;;;;10.46;92.02;101931.88;5020873;28;20219;-76
2023/05/25 07:10:04;;;;;;;19.83;12.30;;;;;;;10.47;91.58;101932.72;5020227;28;20234;-76
2023/05/25 07:12:30;;;;;;;18.17;11.23;;;;;;;10.48;90.99;101931.81;5025364;28;20947;-73
2023/05/25 07:14:57;;;;;;;20.97;12.43;;;;;;;10.52;90.84;101930.75;5023277;28;20238;-75
2023/05/25 07:17:25;;;;;;;22.50;13.00;;;;;;;10.55;90.89;101938.63;5023028;28;20212;-74
2023/05/25 07:19:51;;;;;;;23.23;12.73;;;;;;;10.58;90.26;101933.13;5024806;28;20200;-74
2023/05/25 07:22:18;;;;;;;22.17;13.23;;;;;;;10.60;90.06;101933.94;5020778;28;20235;-75
2023/05/25 07:24:45;;;;;;;25.93;13.00;;;;;;;10.63;89.64;101936.47;5025492;28;20249;-76
2023/05/25 07:27:12;;;;;;;22.57;13.33;;;;;;;10.65;89.49;101937.28;5022811;28;20207;-73
2023/05/25 07:29:39;;;;;;;21.10;13.33;;;;;;;10.68;89.16;101942.47;5023041;28;20213;-73
2023/05/25 07:32:06;;;;;;;23.97;13.60;;;;;;;10.72;89.43;101944.09;5021259;28;20226;-76
2023/05/25 07:34:35;;;;;;;22.53;14.00;;;;;;;10.75;89.13;101936.78;5022168;28;20224;-73
2023/05/25 07:37:01;;;;;;;24.33;14.10;;;;;;;10.82;89.17;101944.53;5020113;28;20207;-72
2023/05/25 07:39:27;;;;;;;29.37;15.90;;;;;;;10.83;88.83;101944.47;5025956;28;20206;-72
2023/05/25 07:41:54;;;;;;;21.80;13.77;;;;;;;10.87;89.11;101946.06;5024076;28;20235;-74
2023/05/25 07:44:20;;;;;;;26.80;15.07;;;;;;;10.91;88.51;101942.34;5020080;28;20229;-73
2023/05/25 07:46:47;;;;;;;24.87;15.47;;;;;;;10.94;88.45;101939.50;5026269;28;20214;-72
2023/05/25 07:49:15;;;;;;;23.60;14.20;;;;;;;10.96;87.81;101940.31;5033316;28;20230;-72
2023/05/25 07:51:43;;;;;;;25.70;14.53;;;;;;;11.00;87.54;101951.72;5017377;28;20205;-73
2023/05/25 07:54:10;;;;;;;29.50;15.40;;;;;;;11.02;87.30;101948.06;5026525;28;20236;-73
2023/05/25 07:56:36;;;;;;;23.50;15.43;;;;;;;11.06;87.03;101944.31;5019688;28;20238;-72
2023/05/25 07:59:03;;;;;;;21.53;14.13;;;;;;;11.10;86.57;101951.25;5022521;28;20211;-72
2023/05/25 08:01:29;;;;;;;25.27;14.70;;;;;;;11.14;86.31;101955.50;5032597;28;20698;-71
2023/05/25 08:03:56;;;;;;;27.13;15.83;;;;;;;11.17;85.92;101948.28;5024129;28;20233;-73
2023/05/25 08:06:22;;;;;;;24.77;14.87;;;;;;;11.20;86.15;101950.81;5021472;28;20212;-72
2023/05/25 08:08:50;;;;;;;22.43;13.80;;;;;;;11.25;85.85;101951.50;5025140;28;20203;-73
2023/05/25 08:11:17;;;;;;;24.50;14.97;;;;;;;11.27;85.70;101946.97;5023491;28;20310;-74
2023/05/25 08:13:44;;;;;;;21.83;13.77;;;;;;;11.32;85.57;101956.47;5023189;28;20866;-75
2023/05/25 08:16:10;;;;;;;24.20;13.70;;;;;;;11.36;85.21;101959.84;5032720;28;20254;-73
2023/05/25 08:18:36;;;;;;;24.03;13.67;;;;;;;11.42;85.43;101962.25;5024425;28;20208;-72
2023/05/25 08:21:03;;;;;;;22.90;13.93;;;;;;;11.46;84.97;101961.19;5025062;28;20225;-72
2023/05/25 08:23:30;;;;;;;19.60;13.73;;;;;;;11.52;84.95;101968.88;5023843;28;20667;-73
2023/05/25 08:25:58;;;;;;;18.30;12.77;;;;;;;11.55;84.55;101966.09;5025808;28;20242;-72
2023/05/25 08:28:24;;;;;;;22.23;13.40;;;;;;;11.60;84.40;101964.06;5022449;28;20214;-72
2023/05/25 08:30:51;;;;;;;23.07;14.10;;;;;;;11.66;84.62;101965.56;5020977;28;20230;-73
2023/05/25 08:33:17;;;;;;;22.73;14.27;;;;;;;11.69;84.17;101960.97;5025251;28;20786;-73
2023/05/25 08:35:44;;;;;;;19.77;13.53;;;;;;;11.71;83.56;101969.75;5026799;28;20311;-73
2023/05/25 08:38:10;;;;;;;21.47;13.13;;;;;;;11.73;82.98;101965.22;5018856;28;20578;-73
2023/05/25 08:40:41;;;;;;;20.27;12.90;;;;;;;11.78;83.04;101965.03;5025949;28;20208;-73
2023/05/25 08:43:09;;;;;;;18.73;11.97;;;;;;;11.84;82.95;101967.41;5018762;28;20241;-69
2023/05/25 08:45:35;;;;;;;18.43;11.17;;;;;;;11.91;82.91;101970.66;5016167;28;20203;-71
2023/05/25 08:48:04;;;;;;;20.43;12.57;;;;;;;11.98;82.50;101958.75;5020880;28;20222;-71
2023/05/25 08:50:33;;;;;;;19.63;13.13;;;;;;;12.04;82.81;101966.44;5027491;28;20196;-70
2023/05/25 08:53:03;;;;;;;19.47;11.97;;;;;;;12.09;82.34;101967.09;5024310;28;20248;-72
2023/05/25 08:55:34;;;;;;;17.80;12.40;;;;;;;12.12;81.70;101964.28;5022256;28;20240;-70
2023/05/25 08:58:06;;;;;;;19.93;12.00;;;;;;;12.14;81.37;101963.28;5028270;28;20205;-71
2023/05/25 09:00:40;;;;;;;19.77;10.70;;;;;;;12.20;81.43;101962.09;5025850;28;20696;-70
2023/05/25 09:03:11;;;;;;;13.00;10.10;;;;;;;12.26;80.83;101969.81;5028145;28;20261;-70
2023/05/25 09:05:38;;;;;;;14.87;10.70;;;;;;;12.31;80.63;101972.25;5026522;28;20206;-70
2023/05/25 09:08:05;;;;;;;18.10;11.10;;;;;;;12.35;80.57;101969.38;5026044;28;20202;-70
2023/05/25 09:10:33;;;;;;;18.27;11.73;;;;;;;12.42;79.96;101959.22;5033275;28;20240;-70
2023/05/25 09:13:01;;;;;;;18.80;11.50;;;;;;;12.50;80.12;101962.38;5027265;28;20225;-71
2023/05/25 09:15:28;;;;;;;20.00;10.90;;;;;;;12.58;79.88;101964.66;5018618;28;20227;-70
2023/05/25 09:17:55;;;;;;;15.33;11.07;;;;;;;12.63;79.17;101949.25;5026831;28;20216;-70
2023/05/25 09:20:23;;;;;;;15.50;10.57;;;;;;;12.66;78.85;101959.78;5027604;28;20224;-72
2023/05/25 09:22:50;;;;;;;18.30;10.97;;;;;;;12.68;78.28;101969.47;5027317;28;20233;-70
2023/05/25 09:25:19;;;;;;;17.93;11.90;;;;;;;12.71;77.90;101979.13;5028176;28;20681;-71
2023/05/25 09:27:45;;;;;;;15.27;11.10;;;;;;;12.76;77.83;101977.06;5015788;28;20207;-71
2023/05/25 09:30:12;;;;;;;19.83;10.80;;;;;;;12.80;77.70;101970.63;5013931;28;20693;-71
2023/05/25 09:32:39;;;;;;;16.43;11.03;;;;;;;12.83;77.00;101974.03;5019187;28;20231;-68
2023/05/25 09:35:11;;;;;;;16.37;11.03;;;;;;;12.85;76.81;101976.63;5022167;28;20840;-72
2023/05/25 09:37:38;;;;;;;17.77;11.00;;;;;;;12.86;76.93;101979.22;5024715;28;20294;-71
2023/05/25 09:40:06;;;;;;;17.73;11.57;;;;;;;12.91;77.46;101976.28;5024339;28;20206;-70
2023/05/25 09:42:33;;;;;;;18.80;12.33;;;;;;;12.99;77.11;101978.56;5025130;28;20361;-70
2023/05/25 09:45:00;;;;;;;20.70;12.83;;;;;;;13.05;77.43;101981.78;5032693;28;20965;-70
2023/05/25 09:47:26;;;;;;;19.10;11.27;;;;;;;13.12;77.23;101977.84;5026402;28;20218;-72
2023/05/25 09:49:53;;;;;;;13.10;10.17;;;;;;;13.16;76.90;101967.88;5026865;28;20214;-70
2023/05/25 09:52:21;;;;;;;20.40;10.73;;;;;;;13.19;76.60;101979.28;5029754;28;20230;-70
2023/05/25 09:54:50;;;;;;;17.23;9.90;;;;;;;13.24;76.76;101981.72;5030929;28;20276;-70
2023/05/25 09:57:18;;;;;;;16.43;9.13;;;;;;;13.28;76.36;101983.25;5027283;28;20303;-71
2023/05/25 09:59:44;;;;;;;15.37;9.37;;;;;;;13.31;75.93;101990.25;5040853;28;20198;-71
2023/05/25 10:02:11;;;;;;;16.30;8.50;;;;;;;13.32;76.25;101994.66;5027315;28;20264;-72
2023/05/25 10:04:37;;;;;;;16.23;9.10;;;;;;;13.33;76.30;101991.06;5025962;28;20213;-68
2023/05/25 10:07:05;;;;;;;16.10;8.27;;;;;;;13.38;76.24;101994.34;5020107;28;20202;-69
2023/05/25 10:09:38;;;;;;;16.73;8.33;;;;;;;13.43;76.56;101989.63;5025153;28;20210;-68
2023/05/25 10:12:06;;;;;;;13.07;7.87;;;;;;;13.48;76.14;101992.91;5031255;28;20368;-69
2023/05/25 10:14:37;;;;;;;13.53;8.00;;;;;;;13.55;76.39;101997.84;5029836;28;20205;-68
2023/05/25 10:17:06;;;;;;;15.10;8.93;;;;;;;13.62;76.08;101987.66;5031457;28;20209;-68
2023/05/25 10:19:40;;;;;;;13.93;8.40;;;;;;;13.76;76.08;101990.44;5023013;28;20230;-68
2023/05/25 10:22:13;;;;;;;17.70;8.90;;;;;;;13.87;75.17;101993.38;5023925;28;20231;-68
2023/05/25 10:24:48;;;;;;;13.67;7.33;;;;;;;13.96;74.71;101997.38;5026215;28;20218;-68
2023/05/25 10:27:18;;;;;;;14.03;7.93;;;;;;;14.08;73.97;101985.09;5021686;28;20221;-69
2023/05/25 10:29:47;;;;;;;12.80;8.30;;;;;;;14.23;74.51;101982.41;5023527;28;20221;-69
2023/05/25 10:32:15;;;;;;;13.57;8.00;;;;;;;14.36;73.48;101985.22;5026454;28;20296;-69
2023/05/25 10:34:42;;;;;;;14.10;7.87;;;;;;;14.43;72.62;101991.16;5025044;28;21070;-70
2023/05/25 10:37:09;;;;;;;19.63;9.03;;;;;;;14.47;72.23;101988.19;5028857;28;20214;-69
2023/05/25 10:39:36;;;;;;;11.77;8.23;;;;;;;14.52;71.21;101993.28;5017043;28;20207;-68
2023/05/25 10:42:05;;;;;;;10.97;8.17;;;;;;;14.57;71.32;101994.75;5020718;28;20253;-69
2023/05/25 10:44:32;;;;;;;10.03;7.13;;;;;;;14.61;69.92;101983.84;5025735;28;20206;-69
2023/05/25 10:46:59;;;;;;;11.47;7.60;;;;;;;14.63;69.94;101988.16;5021049;28;20218;-68
2023/05/25 10:49:32;;;;;;;13.80;8.47;;;;;;;14.72;70.08;101989.41;5024377;28;20211;-68
2023/05/25 10:52:00;;;;;;;9.40;7.03;;;;;;;14.79;69.49;101990.78;5023064;28;20338;-68
2023/05/25 10:54:31;;;;;;;16.63;8.80;;;;;;;14.86;69.35;101981.44;5022299;28;20202;-68
2023/05/25 10:57:13;;;;;;;14.10;7.50;;;;;;;14.95;69.10;101988.91;5025896;28;20224;-68
2023/05/25 10:59:44;;;;;;;11.57;6.60;;;;;;;15.01;67.72;101983.19;5022505;28;20218;-68
2023/05/25 11:02:11;;;;;;;12.73;6.67;;;;;;;15.06;66.86;101981.06;5030253;28;20270;-69
2023/05/25 11:04:37;;;;;;;11.40;7.10;;;;;;;15.13;67.18;101981.56;5026641;28;20203;-69
2023/05/25 11:07:12;;;;;;;12.57;7.13;;;;;;;15.23;67.21;101983.56;5022730;28;20210;-70
2023/05/25 11:09:42;;;;;;;8.43;6.13;;;;;;;15.33;66.39;101983.03;5028327;28;20218;-71
2023/05/25 11:12:09;;;;;;;10.10;6.93;;;;;;;15.38;66.27;101987.16;5033248;28;20525;-71
2023/05/25 11:14:40;;;;;;;10.83;6.07;;;;;;;15.41;65.96;101986.94;5030657;28;20204;-71
2023/05/25 11:17:10;;;;;;;11.77;6.50;;;;;;;15.46;65.65;101979.47;5028502;28;20231;-71